Exeland, Wisconsin
Current Conditions -  °F | °C
As of 3:15 AM on Wednesday 22 Oct 2014 (Local Time) from KRCX Reporting Station
Clear Clear  
Wind Chill: 31°   Ceiling: Unl
Heat Index: 35°   Visibility: 10mi
Dew Point: 32°   Wind: 5mph
Humidity: 91%   Direction: 120°ESE
Pressure: 30.27"   Gusts: NA
Location:  45.67°N, 91.24°W
Report Text: KRCX 220815Z AUTO 12004KT 10SM CLR 02/00 A3027 RMK AO2 T00150002
Loading
Personal Weather Stations






























Interactive Weather Map New forecast layout! Learn more

10-Day Weather Forecast

Advertisements
Track Severe Weather on mobile